Time;durP1;ratioP1;P1;durP2;ratioP2;P2;SDS_P1;SDS_P2;PMS_P1;PMS_P2;Temp;Humidity;BMP_temperature;BMP_pressure;BME280_temperature;BME280_humidity;BME280_pressure;Samples;Min_cycle;Max_cycle;Signal;HPM_P1;HPM_P2
2023/06/11 00:01:52;;;;;;;;;;;;;;;19.50;100.00;99640.52;104595;1264;73537;-61
2023/06/11 00:04:24;;;;;;;;;;;;;;;19.48;100.00;99644.02;104997;1268;67853;-63
2023/06/11 00:06:53;;;;;;;;;;;;;;;19.48;100.00;99645.77;104629;1264;73163;-61
2023/06/11 00:09:22;;;;;;;;;;;;;;;19.48;100.00;99640.89;104723;1268;61237;-64
2023/06/11 00:11:48;;;;;;;;;;;;;;;19.46;100.00;99648.29;104598;1264;61787;-71
2023/06/11 00:14:15;;;;;;;;;;;;;;;19.43;100.00;99644.56;104855;1265;75045;-64
2023/06/11 00:16:43;;;;;;;;;;;;;;;19.38;100.00;99642.64;104481;1271;67103;-61
2023/06/11 00:19:11;;;;;;;;;;;;;;;19.35;100.00;99636.86;104603;1265;72679;-63
2023/06/11 00:21:43;;;;;;;;;;;;;;;19.33;100.00;99635.36;104591;1265;61370;-62
2023/06/11 00:24:11;;;;;;;;;;;;;;;19.30;100.00;99637.67;105114;1263;61267;-63
2023/06/11 00:26:40;;;;;;;;;;;;;;;19.29;100.00;99635.73;104655;1264;73542;-62
2023/06/11 00:29:07;;;;;;;;;;;;;;;19.28;100.00;99635.49;104716;1265;65888;-62
2023/06/11 00:31:34;;;;;;;;;;;;;;;19.25;100.00;99626.45;104669;1266;71410;-61
2023/06/11 00:34:01;;;;;;;;;;;;;;;19.22;100.00;99622.30;104964;1265;61229;-63
2023/06/11 00:36:29;;;;;;;;;;;;;;;19.21;100.00;99625.68;104378;1268;61180;-67
2023/06/11 00:38:58;;;;;;;;;;;;;;;19.19;100.00;99621.55;104710;1265;73659;-64
2023/06/11 00:41:25;;;;;;;;;;;;;;;19.17;100.00;99619.74;104668;1265;67451;-63
2023/06/11 00:43:55;;;;;;;;;;;;;;;19.14;100.00;99615.34;104480;1265;72675;-64
2023/06/11 00:46:23;;;;;;;;;;;;;;;19.12;100.00;99615.37;104779;1264;61991;-66
2023/06/11 00:48:50;;;;;;;;;;;;;;;19.09;100.00;99613.14;104604;1265;61238;-63
2023/06/11 00:51:17;;;;;;;;;;;;;;;19.06;100.00;99614.11;104611;1266;73527;-63
2023/06/11 00:53:44;;;;;;;;;;;;;;;19.03;100.00;99612.42;104879;1268;67661;-63
2023/06/11 00:56:17;;;;;;;;;;;;;;;19.01;100.00;99608.33;104588;1265;73853;-63
2023/06/11 00:58:45;;;;;;;;;;;;;;;18.98;100.00;99608.36;104823;1269;61283;-69
2023/06/11 01:01:15;;;;;;;;;;;;;;;18.94;100.00;99602.73;104670;1264;61250;-62
2023/06/11 01:03:43;;;;;;;;;;;;;;;18.92;100.00;99607.90;105353;1265;74263;-64
2023/06/11 01:06:11;;;;;;;;;;;;;;;18.90;100.00;99606.51;104628;1266;65868;-63
2023/06/11 01:08:38;;;;;;;;;;;;;;;18.88;100.00;99609.88;104682;1265;71565;-63
2023/06/11 01:11:13;;;;;;;;;;;;;;;18.86;100.00;99607.11;104703;1265;61151;-71
2023/06/11 01:13:42;;;;;;;;;;;;;;;18.85;100.00;99606.05;104817;1264;61296;-70
2023/06/11 01:16:11;;;;;;;;;;;;;;;18.85;100.00;99599.13;104664;1266;74984;-64
2023/06/11 01:18:40;;;;;;;;;;;;;;;18.84;100.00;99605.05;104636;1266;67124;-62
2023/06/11 01:21:17;;;;;;;;;;;;;;;18.82;100.00;99610.58;104441;1266;73306;-63
2023/06/11 01:23:50;;;;;;;;;;;;;;;18.82;100.00;99619.64;105053;1266;61456;-63
2023/06/11 01:26:18;;;;;;;;;;;;;;;18.81;100.00;99627.52;104602;1264;61334;-62
2023/06/11 01:28:46;;;;;;;;;;;;;;;18.82;100.00;99640.94;104838;1265;74789;-70
2023/06/11 01:31:16;;;;;;;;;;;;;;;18.82;100.00;99646.80;104639;1268;67802;-63
2023/06/11 01:33:44;;;;;;;;;;;;;;;18.82;100.00;99662.11;105413;1265;72782;-71
2023/06/11 01:36:14;;;;;;;;;;;;;;;18.79;100.00;99657.02;104677;1268;61267;-64
2023/06/11 01:38:41;;;;;;;;;;;;;;;18.77;100.00;99659.17;104702;1270;61389;-69
2023/06/11 01:41:14;;;;;;;;;;;;;;;18.75;100.00;99648.80;104475;1269;75166;-61
2023/06/11 01:43:41;;;;;;;;;;;;;;;18.73;100.00;99645.09;104979;1268;68022;-63
2023/06/11 01:46:08;;;;;;;;;;;;;;;18.71;100.00;99647.60;105057;1266;71227;-62
2023/06/11 01:48:36;;;;;;;;;;;;;;;18.70;100.00;99646.48;104982;1264;61302;-69
2023/06/11 01:51:03;;;;;;;;;;;;;;;18.70;100.00;99653.38;104381;1270;61248;-62
2023/06/11 01:53:30;;;;;;;;;;;;;;;18.69;100.00;99656.33;105004;1264;72969;-62
2023/06/11 01:55:58;;;;;;;;;;;;;;;18.67;100.00;99665.33;104768;1269;67156;-64
2023/06/11 01:58:25;;;;;;;;;;;;;;;18.67;100.00;99666.44;104645;1266;71645;-65
2023/06/11 02:00:53;;;;;;;;;;;;;;;18.65;100.00;99661.52;104827;1269;61304;-70
2023/06/11 02:03:20;;;;;;;;;;;;;;;18.63;100.00;99654.58;105667;1269;61259;-65
2023/06/11 02:05:47;;;;;;;;;;;;;;;18.60;100.00;99641.42;104578;1265;73285;-64
2023/06/11 02:08:15;;;;;;;;;;;;;;;18.60;100.00;99650.06;104584;1268;67044;-64
2023/06/11 02:10:43;;;;;;;;;;;;;;;18.60;100.00;99649.95;104706;1268;72770;-64
2023/06/11 02:13:10;;;;;;;;;;;;;;;18.61;100.00;99661.63;104812;1264;61356;-71
2023/06/11 02:15:37;;;;;;;;;;;;;;;18.60;100.00;99653.65;104443;1270;61192;-63
2023/06/11 02:18:05;;;;;;;;;;;;;;;18.60;100.00;99650.33;104542;1265;73455;-63
2023/06/11 02:20:32;;;;;;;;;;;;;;;18.62;100.00;99652.77;104675;1265;66270;-64
2023/06/11 02:23:01;;;;;;;;;;;;;;;18.63;100.00;99658.27;104771;1264;72540;-68
2023/06/11 02:25:28;;;;;;;;;;;;;;;18.64;100.00;99659.61;104534;1265;61270;-64
2023/06/11 02:27:55;;;;;;;;;;;;;;;18.66;100.00;99657.09;104965;1264;61360;-62
2023/06/11 02:30:23;;;;;;;;;;;;;;;18.69;100.00;99655.70;104623;1266;73396;-61
2023/06/11 02:32:50;;;;;;;;;;;;;;;18.71;100.00;99651.52;104764;1266;65895;-61
2023/06/11 02:35:17;;;;;;;;;;;;;;;18.71;100.00;99652.05;104818;1268;72764;-71
2023/06/11 02:37:44;;;;;;;;;;;;;;;18.72;100.00;99655.76;104592;1270;61159;-64
2023/06/11 02:40:11;;;;;;;;;;;;;;;18.73;100.00;99656.86;104636;1265;61242;-66
2023/06/11 02:42:38;;;;;;;;;;;;;;;18.75;100.00;99662.52;104678;1265;73589;-63
2023/06/11 02:45:06;;;;;;;;;;;;;;;18.76;100.00;99663.27;104885;1265;67448;-64
2023/06/11 02:47:33;;;;;;;;;;;;;;;18.77;100.00;99666.14;104968;1265;71299;-71
2023/06/11 02:50:00;;;;;;;;;;;;;;;18.77;100.00;99662.92;104624;1265;61360;-64
2023/06/11 02:52:29;;;;;;;;;;;;;;;18.76;100.00;99660.69;104722;1265;61130;-66
2023/06/11 02:54:55;;;;;;;;;;;;;;;18.77;100.00;99662.98;105008;1268;74565;-72
2023/06/11 02:57:22;;;;;;;;;;;;;;;18.78;100.00;99660.77;104520;1268;66072;-64
2023/06/11 02:59:49;;;;;;;;;;;;;;;18.83;100.00;99664.34;104924;1266;72750;-71
2023/06/11 03:02:16;;;;;;;;;;;;;;;18.88;100.00;99666.34;105176;1265;61196;-66
2023/06/11 03:04:43;;;;;;;;;;;;;;;18.92;100.00;99670.22;104917;1269;61121;-65
2023/06/11 03:07:10;;;;;;;;;;;;;;;18.97;100.00;99675.44;104731;1265;72478;-73
2023/06/11 03:09:37;;;;;;;;;;;;;;;19.01;100.00;99675.42;104653;1269;65956;-61
2023/06/11 03:12:05;;;;;;;;;;;;;;;19.05;100.00;99675.45;104907;1264;74084;-65
2023/06/11 03:14:32;;;;;;;;;;;;;;;19.09;100.00;99672.36;104960;1265;61267;-61
2023/06/11 03:16:59;;;;;;;;;;;;;;;19.12;100.00;99668.36;104907;1266;61125;-63
2023/06/11 03:19:26;;;;;;;;;;;;;;;19.12;100.00;99671.05;104733;1268;73278;-63
2023/06/11 03:21:54;;;;;;;;;;;;;;;19.12;100.00;99673.39;104642;1265;211808;-63
2023/06/11 03:24:21;;;;;;;;;;;;;;;19.11;100.00;99675.23;104985;1269;72799;-66
2023/06/11 03:26:49;;;;;;;;;;;;;;;19.11;100.00;99679.83;104875;1268;61392;-62
2023/06/11 03:29:16;;;;;;;;;;;;;;;19.11;100.00;99681.68;104723;1264;61267;-70
2023/06/11 03:31:47;;;;;;;;;;;;;;;19.09;100.00;99684.15;104449;1267;74460;-62
2023/06/11 03:34:15;;;;;;;;;;;;;;;19.10;100.00;99685.85;104607;1265;67474;-61
2023/06/11 03:36:42;;;;;;;;;;;;;;;19.11;100.00;99682.73;104818;1266;71855;-70
2023/06/11 03:39:13;;;;;;;;;;;;;;;19.15;100.00;99687.58;104792;1268;61253;-67
2023/06/11 03:41:40;;;;;;;;;;;;;;;19.20;100.00;99685.86;105157;1268;61299;-62
2023/06/11 03:44:07;;;;;;;;;;;;;;;19.27;100.00;99680.20;104621;1266;73500;-62
2023/06/11 03:46:35;;;;;;;;;;;;;;;19.32;100.00;99681.23;104884;1268;67799;-64
2023/06/11 03:49:02;;;;;;;;;;;;;;;19.38;100.00;99672.71;104335;1265;71546;-61
2023/06/11 03:51:29;;;;;;;;;;;;;;;19.44;100.00;99671.84;104655;1268;61322;-69
2023/06/11 03:53:56;;;;;;;;;;;;;;;19.50;100.00;99674.64;104593;1265;61229;-64
2023/06/11 03:56:24;;;;;;;;;;;;;;;19.55;100.00;99675.63;104492;1265;73098;-61
2023/06/11 03:58:51;;;;;;;;;;;;;;;19.62;100.00;99673.24;104606;1268;67015;-63
2023/06/11 04:01:20;;;;;;;;;;;;;;;19.67;100.00;99666.98;104614;1269;71146;-62
2023/06/11 04:03:47;;;;;;;;;;;;;;;19.72;100.00;99671.02;104634;1272;61316;-61
2023/06/11 04:06:15;;;;;;;;;;;;;;;19.78;100.00;99671.54;104616;1265;61249;-61
2023/06/11 04:08:44;;;;;;;;;;;;;;;19.92;100.00;99675.23;104920;1265;74739;-65
2023/06/11 04:11:11;;;;;;;;;;;;;;;20.07;100.00;99678.73;104331;1266;65705;-62
2023/06/11 04:13:38;;;;;;;;;;;;;;;20.26;100.00;99682.33;105174;1266;71448;-61
2023/06/11 04:16:05;;;;;;;;;;;;;;;20.45;100.00;99680.17;104877;1266;61331;-62
2023/06/11 04:18:34;;;;;;;;;;;;;;;20.54;100.00;99676.13;104588;1270;61186;-61
2023/06/11 04:21:01;;;;;;;;;;;;;;;20.60;100.00;99675.19;105161;1269;74478;-62
2023/06/11 04:23:28;;;;;;;;;;;;;;;20.69;100.00;99676.52;104931;1266;68194;-63
2023/06/11 04:25:57;;;;;;;;;;;;;;;20.78;100.00;99675.58;104726;1270;71647;-62
2023/06/11 04:28:26;;;;;;;;;;;;;;;20.88;100.00;99671.39;104622;1266;61333;-62
2023/06/11 04:30:57;;;;;;;;;;;;;;;20.99;100.00;99673.17;104691;1268;61164;-62
2023/06/11 04:33:32;;;;;;;;;;;;;;;21.04;100.00;99671.75;104942;1266;74672;-70
2023/06/11 04:36:07;;;;;;;;;;;;;;;21.13;100.00;99669.98;104448;1269;65956;-62
2023/06/11 04:38:36;;;;;;;;;;;;;;;21.24;100.00;99671.89;104525;1271;72778;-62
2023/06/11 04:41:06;;;;;;;;;;;;;;;21.29;100.00;99673.15;104588;1268;61327;-71
2023/06/11 04:43:33;;;;;;;;;;;;;;;21.24;100.00;99674.59;104653;1268;61206;-64
2023/06/11 04:46:03;;;;;;;;;;;;;;;21.17;100.00;99686.28;104534;1265;73595;-65
2023/06/11 04:48:32;;;;;;;;;;;;;;;21.07;100.00;99689.14;104930;1271;67304;-65
2023/06/11 04:51:00;;;;;;;;;;;;;;;20.98;100.00;99695.23;104825;1269;72858;-69
2023/06/11 04:53:30;;;;;;;;;;;;;;;20.88;100.00;99698.52;104627;1268;61245;-62
2023/06/11 04:55:58;;;;;;;;;;;;;;;20.81;100.00;99706.62;104819;1264;61301;-62
2023/06/11 04:58:29;;;;;;;;;;;;;;;20.75;100.00;99713.86;104751;1265;74655;-63
2023/06/11 05:00:56;;;;;;;;;;;;;;;20.67;100.00;99721.59;105018;1264;66289;-71
2023/06/11 05:03:24;;;;;;;;;;;;;;;20.60;100.00;99720.41;104937;1268;73359;-62
2023/06/11 05:05:51;;;;;;;;;;;;;;;20.58;100.00;99726.35;104608;1264;61329;-64
2023/06/11 05:08:24;;;;;;;;;;;;;;;20.58;100.00;99723.97;104283;1272;61230;-65
2023/06/11 05:10:57;;;;;;;;;;;;;;;20.59;100.00;99729.46;104612;1266;73045;-69
2023/06/11 05:13:25;;;;;;;;;;;;;;;20.65;100.00;99728.20;105223;1268;67595;-66
2023/06/11 05:15:55;;;;;;;;;;;;;;;20.76;100.00;99725.84;104961;1269;72718;-66
2023/06/11 05:18:24;;;;;;;;;;;;;;;20.92;100.00;99727.77;104573;1268;61280;-64
2023/06/11 05:20:51;;;;;;;;;;;;;;;21.10;100.00;99721.45;104433;1265;59758;-65
2023/06/11 05:23:21;;;;;;;;;;;;;;;21.32;100.00;99724.11;104920;1268;73488;-71
2023/06/11 05:25:50;;;;;;;;;;;;;;;21.62;100.00;99726.42;104600;1269;67266;-65
2023/06/11 05:28:20;;;;;;;;;;;;;;;21.98;100.00;99723.65;104544;1266;72732;-63
2023/06/11 05:30:49;;;;;;;;;;;;;;;22.31;100.00;99717.70;104940;1266;61356;-66
2023/06/11 05:33:17;;;;;;;;;;;;;;;22.55;100.00;99719.27;105279;1265;61142;-64
2023/06/11 05:35:45;;;;;;;;;;;;;;;22.70;100.00;99712.05;104577;1266;72866;-63
2023/06/11 05:38:13;;;;;;;;;;;;;;;22.79;100.00;99715.02;104569;1268;66056;-64
2023/06/11 05:40:41;;;;;;;;;;;;;;;22.80;100.00;99714.11;105053;1268;72477;-71
2023/06/11 05:43:09;;;;;;;;;;;;;;;22.69;100.00;99717.21;104528;1265;61301;-63
2023/06/11 05:45:36;;;;;;;;;;;;;;;22.51;100.00;99722.48;104853;1269;61152;-64
2023/06/11 05:48:05;;;;;;;;;;;;;;;22.42;100.00;99729.65;104627;1268;72963;-63
2023/06/11 05:50:34;;;;;;;;;;;;;;;22.42;100.00;99729.23;104780;1269;66044;-66
2023/06/11 05:53:02;;;;;;;;;;;;;;;22.51;100.00;99728.05;105153;1268;73237;-66
2023/06/11 05:55:29;;;;;;;;;;;;;;;22.73;100.00;99732.07;104342;1265;61229;-72
2023/06/11 05:57:57;;;;;;;;;;;;;;;23.04;100.00;99733.31;104698;1270;61326;-64
2023/06/11 06:00:24;;;;;;;;;;;;;;;23.32;100.00;99732.33;104583;1267;73957;-63
2023/06/11 06:02:51;;;;;;;;;;;;;;;23.57;100.00;99727.08;104796;1268;65738;-69
2023/06/11 06:05:24;;;;;;;;;;;;;;;23.74;100.00;99724.16;104467;1270;71626;-72
2023/06/11 06:07:52;;;;;;;;;;;;;;;23.99;100.00;99721.70;104567;1265;61390;-62
2023/06/11 06:10:19;;;;;;;;;;;;;;;24.36;100.00;99718.51;104620;1268;61270;-63
2023/06/11 06:12:47;;;;;;;;;;;;;;;24.74;100.00;99717.23;105222;1269;74977;-68
2023/06/11 06:15:14;;;;;;;;;;;;;;;25.08;100.00;99716.45;104613;1269;67801;-63
2023/06/11 06:17:42;;;;;;;;;;;;;;;25.44;100.00;99715.73;104656;1270;73014;-69
2023/06/11 06:20:11;;;;;;;;;;;;;;;25.67;100.00;99708.84;104373;1271;61196;-62
2023/06/11 06:22:39;;;;;;;;;;;;;;;26.04;100.00;99702.63;104973;1264;61282;-71
2023/06/11 06:25:08;;;;;;;;;;;;;;;26.53;100.00;99697.02;104795;1265;74662;-62
2023/06/11 06:27:36;;;;;;;;;;;;;;;26.81;100.00;99699.49;105264;1270;66999;-69
2023/06/11 06:30:05;;;;;;;;;;;;;;;26.89;100.00;99704.06;104570;1269;71329;-63
2023/06/11 06:32:33;;;;;;;;;;;;;;;26.89;100.00;99703.55;104571;1270;61269;-64
2023/06/11 06:35:00;;;;;;;;;;;;;;;27.02;100.00;99700.90;105263;1268;61775;-69
2023/06/11 06:37:27;;;;;;;;;;;;;;;27.21;100.00;99697.02;105058;1268;73798;-65
2023/06/11 06:39:55;;;;;;;;;;;;;;;27.30;100.00;99700.91;104794;1265;67277;-63
2023/06/11 06:42:21;;;;;;;;;;;;;;;27.27;100.00;99697.28;104556;1264;71755;-63
2023/06/11 06:44:48;;;;;;;;;;;;;;;27.13;100.00;99702.45;104572;1270;61445;-67
2023/06/11 06:47:15;;;;;;;;;;;;;;;26.96;100.00;99694.91;104614;1268;61571;-64
2023/06/11 06:49:43;;;;;;;;;;;;;;;26.89;100.00;99693.35;104475;1270;74745;-66
2023/06/11 06:52:11;;;;;;;;;;;;;;;26.74;100.00;99691.36;104610;1269;66314;-66
2023/06/11 06:54:39;;;;;;;;;;;;;;;26.47;100.00;99689.90;104884;1272;72108;-64
2023/06/11 06:57:10;;;;;;;;;;;;;;;26.03;100.00;99685.13;104744;1266;61270;-66
2023/06/11 06:59:38;;;;;;;;;;;;;;;25.64;100.00;99688.29;105284;1268;61248;-69
2023/06/11 07:02:05;;;;;;;;;;;;;;;25.26;100.00;99687.77;104606;1268;75006;-64
2023/06/11 07:04:37;;;;;;;;;;;;;;;24.89;100.00;99693.39;104808;1270;66296;-66
2023/06/11 07:07:04;;;;;;;;;;;;;;;24.63;100.00;99696.02;104770;1269;72532;-66
2023/06/11 07:09:32;;;;;;;;;;;;;;;24.43;100.00;99687.48;105038;1271;61308;-70
2023/06/11 07:11:59;;;;;;;;;;;;;;;24.36;100.00;99693.40;104926;1265;61442;-65
2023/06/11 07:14:26;;;;;;;;;;;;;;;24.38;100.00;99697.23;104862;1270;74689;-65
2023/06/11 07:16:53;;;;;;;;;;;;;;;24.49;100.00;99685.68;104722;1267;67248;-67
2023/06/11 07:19:20;;;;;;;;;;;;;;;24.61;100.00;99685.72;104929;1271;71150;-66
2023/06/11 07:21:47;;;;;;;;;;;;;;;24.67;100.00;99687.01;105031;1269;61250;-68
2023/06/11 07:24:14;;;;;;;;;;;;;;;24.75;100.00;99688.23;104924;1268;61268;-63
2023/06/11 07:26:44;;;;;;;;;;;;;;;24.73;100.00;99689.73;104848;1270;73255;-65
2023/06/11 07:29:12;;;;;;;;;;;;;;;24.66;100.00;99687.36;104993;1270;66951;-66
2023/06/11 07:31:40;;;;;;;;;;;;;;;24.58;100.00;99687.80;104906;1268;72574;-68
2023/06/11 07:34:07;;;;;;;;;;;;;;;24.49;100.00;99686.59;104805;1267;61317;-64
2023/06/11 07:36:34;;;;;;;;;;;;;;;24.34;100.00;99687.33;105435;1264;61249;-64
2023/06/11 07:39:02;;;;;;;;;;;;;;;24.17;100.00;99691.80;104918;1272;74402;-64
2023/06/11 07:41:29;;;;;;;;;;;;;;;24.02;100.00;99692.59;104863;1271;65844;-64
2023/06/11 07:43:56;;;;;;;;;;;;;;;23.81;100.00;99688.00;105083;1268;73081;-68
2023/06/11 07:46:23;;;;;;;;;;;;;;;23.64;100.00;99693.65;104616;1270;61358;-64
2023/06/11 07:48:51;;;;;;;;;;;;;;;23.51;100.00;99699.64;105308;1268;61245;-66
2023/06/11 07:51:20;;;;;;;;;;;;;;;23.42;100.00;99696.21;105030;1271;75001;-65
2023/06/11 07:53:49;;;;;;;;;;;;;;;23.39;100.00;99697.94;104738;1270;65943;-68
2023/06/11 07:56:16;;;;;;;;;;;;;;;23.41;100.00;99699.26;104918;1271;72137;-65
2023/06/11 07:58:43;;;;;;;;;;;;;;;23.42;100.00;99694.52;104873;1271;61400;-65
2023/06/11 08:01:10;;;;;;;;;;;;;;;23.44;100.00;99699.75;104821;1270;61270;-65
2023/06/11 08:03:37;;;;;;;;;;;;;;;23.46;100.00;99702.40;104808;1271;74666;-64
2023/06/11 08:06:04;;;;;;;;;;;;;;;23.40;100.00;99700.13;104978;1270;67170;-66
2023/06/11 08:08:32;;;;;;;;;;;;;;;23.35;100.00;99691.30;105223;1266;72645;-65
2023/06/11 08:10:59;;;;;;;;;;;;;;;23.35;100.00;99687.73;105337;1269;60934;-66
2023/06/11 08:13:25;;;;;;;;;;;;;;;23.35;100.00;99685.50;104688;1267;60114;-66
2023/06/11 08:15:53;;;;;;;;;;;;;;;23.35;100.00;99684.22;104985;1267;73356;-66
2023/06/11 08:18:20;;;;;;;;;;;;;;;23.35;100.00;99687.24;105022;1269;67907;-63
2023/06/11 08:20:47;;;;;;;;;;;;;;;23.34;100.00;99690.77;104904;1268;72424;-66
2023/06/11 08:23:14;;;;;;;;;;;;;;;23.23;100.00;99695.11;105239;1269;61241;-65
2023/06/11 08:25:41;;;;;;;;;;;;;;;23.10;100.00;99695.02;105238;1264;61274;-71
2023/06/11 08:28:08;;;;;;;;;;;;;;;22.98;100.00;99701.30;104947;1264;74549;-64
2023/06/11 08:30:35;;;;;;;;;;;;;;;22.86;100.00;99704.50;105361;1268;67139;-64
2023/06/11 08:33:02;;;;;;;;;;;;;;;22.76;100.00;99712.75;105251;1269;72438;-65
2023/06/11 08:35:29;;;;;;;;;;;;;;;22.63;100.00;99711.41;105133;1264;61361;-65
2023/06/11 08:37:56;;;;;;;;;;;;;;;22.45;100.00;99710.52;104705;1268;61217;-66
2023/06/11 08:40:23;;;;;;;;;;;;;;;22.24;100.00;99710.52;104860;1265;73432;-64
2023/06/11 08:42:50;;;;;;;;;;;;;;;22.02;100.00;99714.73;105032;1268;67169;-63
2023/06/11 08:45:17;;;;;;;;;;;;;;;21.83;100.00;99712.25;104769;1269;71145;-66
2023/06/11 08:47:48;;;;;;;;;;;;;;;21.70;100.00;99720.09;104897;1266;61333;-64
2023/06/11 08:50:16;;;;;;;;;;;;;;;21.58;100.00;99720.38;105122;1265;61135;-65
2023/06/11 08:52:43;;;;;;;;;;;;;;;21.48;100.00;99728.20;104973;1272;73514;-63
2023/06/11 08:55:10;;;;;;;;;;;;;;;21.38;100.00;99728.63;105060;1270;67181;-68
2023/06/11 08:57:37;;;;;;;;;;;;;;;21.26;100.00;99725.17;105116;1264;71912;-66
2023/06/11 09:00:07;;;;;;;;;;;;;;;21.15;100.00;99731.00;104986;1264;60560;-66
2023/06/11 09:02:34;;;;;;;;;;;;;;;21.06;100.00;99727.98;105008;1264;61916;-67
2023/06/11 09:05:02;;;;;;;;;;;;;;;21.00;100.00;99722.84;105019;1264;74587;-63
2023/06/11 09:07:30;;;;;;;;;;;;;;;20.93;100.00;99730.36;104874;1270;65830;-64
2023/06/11 09:10:03;;;;;;;;;;;;;;;20.85;100.00;99727.44;104984;1270;73297;-64
2023/06/11 09:12:30;;;;;;;;;;;;;;;20.79;100.00;99736.91;105094;1264;61121;-71
2023/06/11 09:14:58;;;;;;;;;;;;;;;20.77;100.00;99741.26;104851;1264;61264;-66
2023/06/11 09:17:26;;;;;;;;;;;;;;;20.76;100.00;99740.83;104985;1270;74580;-66
2023/06/11 09:19:53;;;;;;;;;;;;;;;20.78;100.00;99737.50;105243;1269;65790;-64
2023/06/11 09:22:27;;;;;;;;;;;;;;;20.82;100.00;99736.86;104991;1265;71548;-64
2023/06/11 09:24:53;;;;;;;;;;;;;;;20.85;100.00;99734.96;104987;1275;61274;-65
2023/06/11 09:27:21;;;;;;;;;;;;;;;20.89;100.00;99736.34;104939;1268;61275;-63
2023/06/11 09:29:47;;;;;;;;;;;;;;;20.91;100.00;99735.45;105084;1269;74495;-65
2023/06/11 09:32:14;;;;;;;;;;;;;;;20.91;100.00;99731.48;104917;1268;67193;-64
2023/06/11 09:35:00;;;;;;;;;;;;;;;20.91;100.00;99740.53;104865;1270;71434;-63
2023/06/11 09:37:27;;;;;;;;;;;;;;;20.88;100.00;99740.05;104912;1267;61260;-72
2023/06/11 09:39:54;;;;;;;;;;;;;;;20.84;100.00;99739.36;104627;1269;61264;-64
2023/06/11 09:42:26;;;;;;;;;;;;;;;20.80;100.00;99737.71;104708;1264;74761;-62
2023/06/11 09:44:57;;;;;;;;;;;;;;;20.75;100.00;99740.45;104833;1264;67411;-69
2023/06/11 09:47:24;;;;;;;;;;;;;;;20.69;100.00;99742.89;104544;1270;71264;-71
2023/06/11 09:49:51;;;;;;;;;;;;;;;20.62;100.00;99742.17;104519;1270;61351;-62
2023/06/11 09:52:18;;;;;;;;;;;;;;;20.57;100.00;99746.35;104698;1268;61147;-63
2023/06/11 09:54:46;;;;;;;;;;;;;;;20.51;100.00;99746.92;104520;1264;73538;-65
2023/06/11 09:57:13;;;;;;;;;;;;;;;20.48;100.00;99746.42;104543;1270;65919;-64
2023/06/11 09:59:41;;;;;;;;;;;;;;;20.45;100.00;99748.62;105076;1268;73245;-66
2023/06/11 10:02:08;;;;;;;;;;;;;;;20.41;100.00;99753.79;104664;1270;61277;-64
2023/06/11 10:04:35;;;;;;;;;;;;;;;20.40;100.00;99752.58;104808;1264;61362;-63
2023/06/11 10:07:02;;;;;;;;;;;;;;;20.39;100.00;99755.33;104438;1265;74732;-70
2023/06/11 10:09:29;;;;;;;;;;;;;;;20.39;100.00;99750.61;104582;1270;66052;-63
2023/06/11 10:11:56;;;;;;;;;;;;;;;20.39;100.00;99749.52;104576;1270;73278;-63
2023/06/11 10:14:23;;;;;;;;;;;;;;;20.39;100.00;99755.39;104580;1264;61291;-64
2023/06/11 10:16:50;;;;;;;;;;;;;;;20.37;100.00;99753.67;104577;1264;61272;-62
2023/06/11 10:19:18;;;;;;;;;;;;;;;20.35;100.00;99752.20;105309;1265;74793;-68
2023/06/11 10:21:49;;;;;;;;;;;;;;;20.31;100.00;99753.48;105085;1269;65707;-67
2023/06/11 10:24:22;;;;;;;;;;;;;;;20.27;100.00;99760.42;104533;1271;71286;-62
2023/06/11 10:27:07;;;;;;;;;;;;;;;20.23;100.00;99758.40;104755;1272;61290;-62
2023/06/11 10:29:37;;;;;;;;;;;;;;;20.21;100.00;99755.27;104541;1270;61159;-69
2023/06/11 10:32:13;;;;;;;;;;;;;;;20.21;100.00;99752.62;104615;1269;74661;-63
2023/06/11 10:34:41;;;;;;;;;;;;;;;20.23;100.00;99753.57;104438;1264;65767;-64
2023/06/11 10:37:09;;;;;;;;;;;;;;;20.22;100.00;99751.08;104742;1268;72635;-62
2023/06/11 10:39:36;;;;;;;;;;;;;;;20.18;100.00;99757.84;104758;1269;61935;-63
2023/06/11 10:42:05;;;;;;;;;;;;;;;20.13;100.00;99764.02;104825;1264;61229;-62
2023/06/11 10:44:39;;;;;;;;;;;;;;;20.08;100.00;99766.10;104612;1264;73460;-62
2023/06/11 10:47:06;;;;;;;;;;;;;;;19.96;100.00;99788.52;105085;1266;66488;-74
2023/06/11 10:49:34;;;;;;;;;;;;;;;19.80;100.00;99782.36;104521;1269;73016;-65
2023/06/11 10:52:02;;;;;;;;;;;;;;;19.67;100.00;99791.21;105010;1265;61418;-67
2023/06/11 10:54:33;;;;;;;;;;;;;;;19.59;100.00;99794.88;104843;1265;61117;-63
2023/06/11 10:57:00;;;;;;;;;;;;;;;19.51;100.00;99805.39;104643;1268;73184;-68
2023/06/11 10:59:28;;;;;;;;;;;;;;;19.42;100.00;99795.65;104466;1270;66006;-65
2023/06/11 11:01:54;;;;;;;;;;;;;;;19.33;100.00;99805.24;104809;1264;72406;-65
2023/06/11 11:04:22;;;;;;;;;;;;;;;19.22;100.00;99809.21;104820;1264;61221;-68
2023/06/11 11:06:52;;;;;;;;;;;;;;;19.11;100.00;99810.50;104729;1264;61222;-66
2023/06/11 11:09:21;;;;;;;;;;;;;;;19.04;100.00;99816.91;104735;1269;75273;-64
2023/06/11 11:11:48;;;;;;;;;;;;;;;18.97;100.00;99820.55;105326;1264;67338;-64
2023/06/11 11:14:17;;;;;;;;;;;;;;;18.85;100.00;99820.53;105012;1269;71491;-65
2023/06/11 11:16:47;;;;;;;;;;;;;;;18.66;100.00;99824.57;104563;1269;61350;-63
2023/06/11 11:19:15;;;;;;;;;;;;;;;18.46;100.00;99826.50;104860;1264;61401;-74
2023/06/11 11:21:49;;;;;;;;;;;;;;;18.24;100.00;99839.52;104683;1268;74715;-62
2023/06/11 11:24:16;;;;;;;;;;;;;;;17.99;100.00;99851.45;104559;1264;67248;-62
2023/06/11 11:26:45;;;;;;;;;;;;;;;17.77;100.00;99854.33;104838;1264;72722;-69
2023/06/11 11:29:12;;;;;;;;;;;;;;;17.53;100.00;99868.88;105031;1264;61897;-74
2023/06/11 11:31:40;;;;;;;;;;;;;;;17.25;100.00;99878.52;105217;1265;61146;-63
2023/06/11 11:34:07;;;;;;;;;;;;;;;17.02;100.00;99882.66;104994;1264;74705;-61
2023/06/11 11:36:35;;;;;;;;;;;;;;;16.80;100.00;99888.81;104519;1270;66100;-61
2023/06/11 11:39:09;;;;;;;;;;;;;;;16.61;100.00;99893.52;104701;1264;72957;-69
2023/06/11 11:41:43;;;;;;;;;;;;;;;16.46;100.00;99904.86;104510;1270;61276;-63
2023/06/11 11:44:10;;;;;;;;;;;;;;;16.29;100.00;99909.22;104771;1264;61282;-70
2023/06/11 11:46:37;;;;;;;;;;;;;;;16.16;100.00;99910.18;104467;1268;75207;-60
2023/06/11 11:49:04;;;;;;;;;;;;;;;16.02;100.00;99912.55;104535;1269;66983;-59
2023/06/11 11:51:35;;;;;;;;;;;;;;;15.93;100.00;99914.59;104744;1270;71635;-61
2023/06/11 11:54:02;;;;;;;;;;;;;;;15.88;100.00;99915.52;104649;1265;61997;-59
2023/06/11 11:56:33;;;;;;;;;;;;;;;15.85;100.00;99916.77;104540;1267;61286;-60
2023/06/11 11:59:00;;;;;;;;;;;;;;;15.84;100.00;99919.67;104573;1264;75035;-59
2023/06/11 12:01:36;;;;;;;;;;;;;;;15.80;100.00;99919.61;104615;1268;65077;-62
2023/06/11 12:04:04;;;;;;;;;;;;;;;15.78;100.00;99922.02;104329;1270;71364;-63
2023/06/11 12:06:31;;;;;;;;;;;;;;;15.77;100.00;99924.48;104539;1270;61290;-61
2023/06/11 12:08:58;;;;;;;;;;;;;;;15.77;100.00;99918.20;104560;1264;61187;-62
2023/06/11 12:11:25;;;;;;;;;;;;;;;15.75;100.00;99916.44;104731;1265;75391;-60
2023/06/11 12:13:52;;;;;;;;;;;;;;;15.74;100.00;99922.40;104873;1269;65988;-64
2023/06/11 12:16:20;;;;;;;;;;;;;;;15.75;100.00;99917.45;104749;1264;71895;-62
2023/06/11 12:18:48;;;;;;;;;;;;;;;15.76;100.00;99917.61;104598;1264;62149;-65
2023/06/11 12:21:15;;;;;;;;;;;;;;;15.80;100.00;99913.17;104597;1264;61219;-60
2023/06/11 12:23:41;;;;;;;;;;;;;;;15.82;100.00;99913.91;104581;1264;74553;-61
2023/06/11 12:26:08;;;;;;;;;;;;;;;15.79;100.00;99913.73;104746;1267;67174;-60
2023/06/11 12:28:35;;;;;;;;;;;;;;;15.77;100.00;99916.79;104623;1267;70779;-60
2023/06/11 12:31:03;;;;;;;;;;;;;;;15.74;100.00;99915.40;104635;1263;61816;-68